createdAt,value
2022-08-03T00:01:56.841Z,3.30
2022-08-03T00:06:59.689Z,3.20
2022-08-03T00:12:02.717Z,3.80
2022-08-03T00:17:05.908Z,3.50
2022-08-03T00:22:08.685Z,3.30
2022-08-03T00:27:11.563Z,3.40
2022-08-03T00:32:19.467Z,3.50
2022-08-03T00:37:41.641Z,3.40
2022-08-03T00:42:48.743Z,3.50
2022-08-03T00:47:51.813Z,3.40
2022-08-03T00:52:57.339Z,3.30
2022-08-03T00:58:01.644Z,3.10
2022-08-03T01:03:05.921Z,4.40
2022-08-03T01:08:35.418Z,4.00
2022-08-03T01:14:03.566Z,3.70
2022-08-03T01:19:24.395Z,3.40
2022-08-03T01:24:55.165Z,3.10
2022-08-03T01:30:07.133Z,3.40
2022-08-03T01:35:16.665Z,2.80
2022-08-03T01:40:22.293Z,2.90
2022-08-03T01:45:26.898Z,2.90
2022-08-03T01:50:32.011Z,2.70
2022-08-03T01:55:36.780Z,2.90
2022-08-03T02:00:41.487Z,2.70
2022-08-03T02:05:46.374Z,2.60
2022-08-03T02:10:50.765Z,2.80
2022-08-03T02:15:54.872Z,2.80
2022-08-03T02:20:59.291Z,2.60
2022-08-03T02:26:07.524Z,2.90
2022-08-03T02:31:18.210Z,2.70
2022-08-03T02:36:25.494Z,2.80
2022-08-03T02:41:32.738Z,2.90
2022-08-03T02:46:45.630Z,3.30
2022-08-03T02:51:50.591Z,3.60
2022-08-03T02:56:56.197Z,3.50
2022-08-03T03:02:01.625Z,3.20
2022-08-03T03:07:05.356Z,2.90
2022-08-03T03:12:11.312Z,3.50
2022-08-03T03:17:17.093Z,3.10
2022-08-03T03:22:21.477Z,2.80
2022-08-03T03:27:24.568Z,2.50
2022-08-03T03:32:29.096Z,3.00
2022-08-03T03:37:31.995Z,3.00
2022-08-03T03:42:35.321Z,2.70
2022-08-03T03:47:38.377Z,3.60
2022-08-03T03:52:41.339Z,3.10
2022-08-03T03:57:44.694Z,3.10
2022-08-03T04:02:48.195Z,3.00
2022-08-03T04:08:17.541Z,2.70
2022-08-03T04:13:22.194Z,2.80
2022-08-03T04:18:27.858Z,2.60
2022-08-03T04:23:36.277Z,3.00
2022-08-03T04:28:43.058Z,3.20
2022-08-03T04:33:46.997Z,3.40
2022-08-03T04:39:03.851Z,3.30
2022-08-03T04:44:08.815Z,3.20
2022-08-03T04:49:12.334Z,3.00
2022-08-03T04:54:18.933Z,3.20
2022-08-03T04:59:21.741Z,3.10
2022-08-03T05:04:24.527Z,2.90
2022-08-03T05:09:50.066Z,3.30
2022-08-03T05:14:50.170Z,3.00
2022-08-03T05:19:53.057Z,2.90
2022-08-03T05:24:56.364Z,2.60
2022-08-03T05:30:30.764Z,3.30
2022-08-03T05:35:55.699Z,4.10
2022-08-03T05:40:46.985Z,3.30
2022-08-03T05:46:11.976Z,2.50
2022-08-03T05:51:16.032Z,3.00
2022-08-03T05:56:22.743Z,2.50
2022-08-03T06:01:25.698Z,2.50
2022-08-03T06:06:32.161Z,2.60
2022-08-03T06:11:35.516Z,2.60
2022-08-03T06:16:38.410Z,2.10
2022-08-03T06:21:41.355Z,2.10
2022-08-03T06:26:44.376Z,1.80
2022-08-03T06:31:47.265Z,2.10
2022-08-03T06:36:52.347Z,1.90
2022-08-03T06:41:55.651Z,2.20
2022-08-03T06:47:09.261Z,1.90
2022-08-03T06:52:13.235Z,2.20
2022-08-03T06:57:36.107Z,2.10
2022-08-03T07:02:40.107Z,1.80
2022-08-03T07:07:44.111Z,2.10
2022-08-03T07:12:52.975Z,2.20
2022-08-03T07:17:59.669Z,2.00
2022-08-03T07:23:02.585Z,1.90
2022-08-03T07:28:05.640Z,1.90
2022-08-03T07:33:08.433Z,2.00
2022-08-03T07:43:14.127Z,1.70
2022-08-03T07:48:17.359Z,2.00
2022-08-03T07:53:20.251Z,3.00
2022-08-03T07:58:24.464Z,2.30
2022-08-03T08:03:27.583Z,2.00
2022-08-03T08:08:50.431Z,2.20
2022-08-03T08:13:53.264Z,2.00
2022-08-03T08:23:58.938Z,2.60
2022-08-03T08:29:01.681Z,2.80
2022-08-03T08:34:05.865Z,2.10
2022-08-03T08:39:08.702Z,2.00
2022-08-03T08:44:11.805Z,2.00
2022-08-03T08:49:23.220Z,2.00
2022-08-03T08:54:26.856Z,1.80
2022-08-03T08:59:48.404Z,1.80
2022-08-03T09:04:54.334Z,2.10
2022-08-03T09:15:22.121Z,2.20
2022-08-03T09:20:26.886Z,1.90
2022-08-03T09:25:33.617Z,2.00
2022-08-03T09:30:38.473Z,2.30
2022-08-03T09:35:54.994Z,2.00
2022-08-03T09:41:01.039Z,2.20
2022-08-03T09:46:07.692Z,2.20
2022-08-03T09:51:13.056Z,3.50
2022-08-03T09:56:46.287Z,1.90
2022-08-03T10:01:49.097Z,1.90
2022-08-03T10:07:24.938Z,1.90
2022-08-03T10:12:29.226Z,2.00
2022-08-03T10:17:32.035Z,1.80
2022-08-03T10:22:36.904Z,2.20
2022-08-03T10:27:42.440Z,1.90
2022-08-03T10:33:02.958Z,2.00
2022-08-03T10:38:12.656Z,1.40
2022-08-03T10:43:23.137Z,2.00
2022-08-03T10:48:27.172Z,2.00
2022-08-03T10:53:55.074Z,2.00
2022-08-03T10:58:59.023Z,1.90
2022-08-03T11:04:10.966Z,2.00
2022-08-03T11:09:17.975Z,1.90
2022-08-03T11:14:22.191Z,2.00
2022-08-03T11:19:57.832Z,2.20
2022-08-03T11:25:02.612Z,1.90
2022-08-03T11:30:29.201Z,1.90
2022-08-03T11:35:43.858Z,2.30
2022-08-03T11:40:48.510Z,2.10
2022-08-03T11:46:07.424Z,1.80
2022-08-03T11:51:25.805Z,1.80
2022-08-03T11:56:30.113Z,2.00
2022-08-03T12:01:33.079Z,2.20
2022-08-03T12:06:55.234Z,1.90
2022-08-03T12:12:00.476Z,2.10
2022-08-03T12:17:04.290Z,2.00
2022-08-03T12:22:08.439Z,2.00
2022-08-03T12:27:11.330Z,1.90
2022-08-03T12:32:15.665Z,2.20
2022-08-03T12:37:22.638Z,2.00
2022-08-03T12:42:35.029Z,2.10
2022-08-03T12:48:00.775Z,2.00
2022-08-03T12:53:07.856Z,1.70
2022-08-03T12:58:33.644Z,1.90
2022-08-03T13:03:57.842Z,2.00
2022-08-03T13:09:08.067Z,1.80
2022-08-03T13:14:16.783Z,2.00
2022-08-03T13:19:23.259Z,1.80
2022-08-03T13:24:26.223Z,2.10
2022-08-03T13:29:29.205Z,2.30
2022-08-03T13:34:32.140Z,2.40
2022-08-03T13:39:35.111Z,2.40
2022-08-03T13:44:59.110Z,2.10
2022-08-03T13:50:03.085Z,2.40
2022-08-03T13:55:07.927Z,2.00
2022-08-03T14:00:11.963Z,2.50
2022-08-03T14:05:14.799Z,2.30
2022-08-03T14:10:19.846Z,2.40
2022-08-03T14:15:22.806Z,1.90
2022-08-03T14:20:36.869Z,2.30
2022-08-03T14:25:43.497Z,1.90
2022-08-03T14:30:55.865Z,2.00
2022-08-03T14:35:58.994Z,2.10
2022-08-03T14:41:01.931Z,2.20
2022-08-03T14:46:04.905Z,2.10
2022-08-03T14:51:07.893Z,2.20
2022-08-03T14:56:11.122Z,2.20
2022-08-03T15:02:04.776Z,1.90
2022-08-03T15:06:37.881Z,2.00
2022-08-03T15:11:40.889Z,2.20
2022-08-03T15:16:44.375Z,2.10
2022-08-03T15:21:47.753Z,2.00
2022-08-03T15:26:52.478Z,2.10
2022-08-03T15:31:55.273Z,2.30
2022-08-03T15:36:58.115Z,2.20
2022-08-03T15:42:00.998Z,2.20
2022-08-03T15:47:03.928Z,2.00
2022-08-03T15:52:06.855Z,2.10
2022-08-03T15:57:09.835Z,2.00
2022-08-03T16:02:13.052Z,2.10
2022-08-03T16:07:16.071Z,2.00
2022-08-03T16:12:18.899Z,2.20
2022-08-03T16:17:23.607Z,2.50
2022-08-03T16:22:27.207Z,4.00
2022-08-03T16:27:55.747Z,2.00
2022-08-03T16:32:53.160Z,2.30
2022-08-03T16:37:57.101Z,2.30
2022-08-03T16:43:00.055Z,2.10
2022-08-03T16:48:05.970Z,2.20
2022-08-03T16:53:10.124Z,1.80
2022-08-03T16:58:19.664Z,2.40
2022-08-03T17:03:42.677Z,2.80
2022-08-03T17:09:10.245Z,2.50
2022-08-03T17:14:14.925Z,2.20
2022-08-03T17:19:18.770Z,2.20
2022-08-03T17:24:28.321Z,2.40
2022-08-03T17:29:35.143Z,3.00
2022-08-03T17:34:38.700Z,2.90
2022-08-03T17:39:59.876Z,2.40
2022-08-03T17:45:03.813Z,2.80
2022-08-03T17:50:24.108Z,2.80
2022-08-03T17:55:56.673Z,2.80
2022-08-03T18:01:59.801Z,2.30
2022-08-03T18:06:55.769Z,2.30
2022-08-03T18:12:05.432Z,2.70
2022-08-03T18:17:15.785Z,2.60
2022-08-03T18:22:22.074Z,2.90
2022-08-03T18:27:45.412Z,3.90
2022-08-03T18:33:00.616Z,4.10
2022-08-03T18:38:04.244Z,3.60
2022-08-03T18:43:14.047Z,3.90
2022-08-03T18:48:40.638Z,4.30
2022-08-03T18:54:06.219Z,4.90
2022-08-03T18:59:14.854Z,4.30
2022-08-03T19:04:25.624Z,4.10
2022-08-03T19:09:35.076Z,4.70
2022-08-03T19:14:45.887Z,9.10
2022-08-03T19:19:51.348Z,7.90
2022-08-03T19:24:58.491Z,9.40
2022-08-03T19:30:11.857Z,4.70
2022-08-03T19:35:52.266Z,3.70
2022-08-03T19:40:50.916Z,4.00
2022-08-03T19:46:06.335Z,3.90
2022-08-03T19:51:12.157Z,3.80
2022-08-03T20:06:43.467Z,4.30
2022-08-03T20:16:51.899Z,4.40
2022-08-03T20:21:54.947Z,4.70
2022-08-03T20:27:00.400Z,5.20
2022-08-03T20:32:03.661Z,6.60
2022-08-03T20:37:09.474Z,7.90
2022-08-03T20:42:15.022Z,9.40
2022-08-03T20:47:27.128Z,11.20
2022-08-03T20:52:34.990Z,10.10
2022-08-03T20:57:53.741Z,8.50
2022-08-03T21:02:56.642Z,11.80
2022-08-03T21:08:07.151Z,11.70
2022-08-03T21:13:10.649Z,4.40
2022-08-03T21:13:25.800Z,11.80
2022-08-03T21:18:36.033Z,9.40
2022-08-03T21:23:49.892Z,8.50
2022-08-03T21:28:55.495Z,7.90
2022-08-03T21:34:02.664Z,7.60
2022-08-03T21:39:08.446Z,7.30
2022-08-03T21:44:11.897Z,7.10
2022-08-03T21:50:06.831Z,7.10
2022-08-03T21:54:43.484Z,6.20
2022-08-03T21:59:54.798Z,5.60
2022-08-03T22:04:58.164Z,6.50
2022-08-03T22:10:02.591Z,6.20
2022-08-03T22:15:09.512Z,5.90
2022-08-03T22:20:17.289Z,5.90
2022-08-03T22:25:24.795Z,5.80
2022-08-03T22:30:29.119Z,6.00
2022-08-03T22:35:47.288Z,5.90
2022-08-03T22:40:52.543Z,6.30
2022-08-03T22:46:09.528Z,6.10
2022-08-03T22:51:15.972Z,5.90
2022-08-03T22:56:19.119Z,6.10
2022-08-03T23:01:26.367Z,5.90
2022-08-03T23:06:38.949Z,6.10
2022-08-03T23:11:45.580Z,5.30
2022-08-03T23:16:50.802Z,5.40
2022-08-03T23:22:03.016Z,5.90
2022-08-03T23:27:09.681Z,5.40
2022-08-03T23:32:13.305Z,5.60
2022-08-03T23:37:17.808Z,5.90
2022-08-03T23:42:21.967Z,6.40
2022-08-03T23:47:25.136Z,5.40
2022-08-03T23:53:04.054Z,5.50
2022-08-03T23:58:28.282Z,5.60
